Time;durP1;ratioP1;P1;durP2;ratioP2;P2;SDS_P1;SDS_P2;PMS_P1;PMS_P2;Temp;Humidity;BMP_temperature;BMP_pressure;BME280_temperature;BME280_humidity;BME280_pressure;Samples;Min_cycle;Max_cycle;Signal;HPM_P1;HPM_P2
2022/11/01 00:01:05;;;;;;;12.68;5.32;;;11.20;99.90;;;;;;5080587;28;20020;-83
2022/11/01 00:03:31;;;;;;;9.82;5.63;;;11.20;99.90;;;;;;5081234;28;20024;-84
2022/11/01 00:05:57;;;;;;;11.73;5.55;;;11.20;99.90;;;;;;5084801;28;20038;-84
2022/11/01 00:08:23;;;;;;;15.98;7.53;;;11.20;99.90;;;;;;5085919;28;20028;-81
2022/11/01 00:10:49;;;;;;;11.65;5.65;;;11.40;99.90;;;;;;5097444;28;20023;-82
2022/11/01 00:13:14;;;;;;;12.05;5.78;;;11.50;99.90;;;;;;5073481;28;20020;-83
2022/11/01 00:15:40;;;;;;;18.58;5.40;;;11.70;99.90;;;;;;5092282;28;20440;-85
2022/11/01 00:18:05;;;;;;;9.80;5.35;;;11.70;99.90;;;;;;5093721;28;20100;-83
2022/11/01 00:20:31;;;;;;;9.25;4.82;;;11.80;99.90;;;;;;5084997;28;20043;-84
2022/11/01 00:22:57;;;;;;;11.35;4.93;;;11.90;99.90;;;;;;5084526;28;20025;-81
2022/11/01 00:25:22;;;;;;;10.48;4.82;;;12.10;99.90;;;;;;5086737;28;20122;-83
2022/11/01 00:27:48;;;;;;;15.93;4.70;;;12.30;99.90;;;;;;5086257;28;20123;-85
2022/11/01 00:30:15;;;;;;;11.00;4.25;;;12.40;99.90;;;;;;5084435;28;20493;-83
2022/11/01 00:32:41;;;;;;;10.63;4.63;;;12.40;99.90;;;;;;5086381;28;20115;-81
2022/11/01 00:35:07;;;;;;;6.05;4.03;;;12.40;99.90;;;;;;5085657;28;20039;-83
2022/11/01 00:37:33;;;;;;;10.60;4.43;;;12.30;99.90;;;;;;5070646;28;20048;-83
2022/11/01 00:39:58;;;;;;;7.05;3.75;;;12.30;99.90;;;;;;5085052;28;20024;-84
2022/11/01 00:42:24;;;;;;;5.70;3.33;;;12.20;99.90;;;;;;5099977;28;20028;-80
2022/11/01 00:44:50;;;;;;;5.93;4.20;;;12.10;99.90;;;;;;5086978;28;20081;-84
2022/11/01 00:47:16;;;;;;;5.25;3.10;;;12.00;99.90;;;;;;5083792;28;20050;-84
2022/11/01 00:49:41;;;;;;;7.95;3.70;;;12.00;99.90;;;;;;5084217;28;20031;-83
2022/11/01 00:52:07;;;;;;;6.50;3.53;;;11.90;99.90;;;;;;5082602;28;20429;-83
2022/11/01 00:54:33;;;;;;;5.43;3.28;;;11.90;99.90;;;;;;5084506;28;20033;-83
2022/11/01 00:56:58;;;;;;;7.13;3.67;;;11.80;99.90;;;;;;5084715;28;20652;-81
2022/11/01 00:59:24;;;;;;;8.32;4.18;;;11.80;99.90;;;;;;5084054;28;20082;-84
2022/11/01 01:01:50;;;;;;;7.00;4.13;;;11.70;99.90;;;;;;5083330;28;20036;-84
2022/11/01 01:04:16;;;;;;;8.38;4.55;;;11.70;99.90;;;;;;5095615;28;20456;-83
2022/11/01 01:06:41;;;;;;;8.38;4.47;;;11.70;99.90;;;;;;5088891;28;20076;-82
2022/11/01 01:09:07;;;;;;;5.78;3.83;;;11.60;99.90;;;;;;5089871;28;20067;-82
2022/11/01 01:11:33;;;;;;;6.72;3.80;;;11.60;99.90;;;;;;5091479;28;20452;-84
2022/11/01 01:13:58;;;;;;;6.88;3.88;;;11.60;99.90;;;;;;5086745;28;20024;-84
2022/11/01 01:16:24;;;;;;;11.95;3.90;;;11.50;99.90;;;;;;5088934;28;20024;-82
2022/11/01 01:18:50;;;;;;;6.70;3.90;;;11.60;99.90;;;;;;5089684;28;20036;-82
2022/11/01 01:21:16;;;;;;;10.73;4.30;;;11.50;99.90;;;;;;5079799;28;20036;-82
2022/11/01 01:23:42;;;;;;;7.70;4.30;;;11.60;99.90;;;;;;5105646;28;20039;-83
2022/11/01 01:26:09;;;;;;;8.50;4.45;;;11.60;99.90;;;;;;5096086;28;20016;-81
2022/11/01 01:28:36;;;;;;;6.85;3.78;;;11.60;99.90;;;;;;5096982;28;20043;-82
2022/11/01 01:31:08;;;;;;;7.18;3.05;;;11.60;99.90;;;;;;5097498;28;20064;-82
2022/11/01 01:33:34;;;;;;;5.07;3.47;;;11.60;99.90;;;;;;5104198;28;20024;-81
2022/11/01 01:36:01;;;;;;;7.07;3.53;;;11.60;99.90;;;;;;5116686;28;20077;-82
2022/11/01 01:38:26;;;;;;;7.60;3.75;;;11.50;99.90;;;;;;5104158;28;20039;-80
2022/11/01 01:40:52;;;;;;;5.38;3.70;;;11.60;99.90;;;;;;5087247;28;20016;-80
2022/11/01 01:43:18;;;;;;;4.88;3.33;;;11.50;99.90;;;;;;5093932;28;20032;-81
2022/11/01 01:45:43;;;;;;;5.15;3.17;;;11.50;99.90;;;;;;5095710;28;20024;-81
2022/11/01 01:48:11;;;;;;;7.63;3.60;;;11.50;99.90;;;;;;5094392;28;20029;-81
2022/11/01 01:50:44;;;;;;;6.03;4.03;;;11.50;99.90;;;;;;5094196;28;20057;-82
2022/11/01 01:53:16;;;;;;;6.15;3.03;;;11.50;99.90;;;;;;5092969;28;20031;-82
2022/11/01 01:55:59;;;;;;;5.07;3.00;;;11.50;99.90;;;;;;5093313;28;20111;-81
2022/11/01 01:58:32;;;;;;;4.28;3.28;;;11.50;99.90;;;;;;5105409;28;20020;-82
2022/11/01 02:00:58;;;;;;;3.35;2.75;;;11.50;99.90;;;;;;5093314;28;20016;-83
2022/11/01 02:03:30;;;;;;;5.60;3.35;;;11.50;99.90;;;;;;5093458;28;20081;-81
2022/11/01 02:06:09;;;;;;;7.95;4.30;;;11.50;99.90;;;;;;5092602;28;20012;-82
2022/11/01 02:08:38;;;;;;;7.40;4.82;;;11.50;99.90;;;;;;5095268;28;20420;-82
2022/11/01 02:11:06;;;;;;;10.38;4.97;;;11.40;99.90;;;;;;5100826;28;20040;-82
2022/11/01 02:13:32;;;;;;;10.75;5.43;;;11.40;99.90;;;;;;5093030;28;20020;-83
2022/11/01 02:16:16;;;;;;;8.80;4.75;;;11.40;99.90;;;;;;5090797;28;20032;-83
2022/11/01 02:18:59;;;;;;;7.38;3.88;;;11.40;99.90;;;;;;5091993;28;20039;-82
2022/11/01 02:21:36;;;;;;;6.70;3.85;;;11.40;99.90;;;;;;5085549;28;20044;-82
2022/11/01 02:24:28;;;;;;;8.20;3.88;;;11.30;99.90;;;;;;5095231;28;20031;-81
2022/11/01 02:27:08;;;;;;;9.05;3.75;;;11.40;99.90;;;;;;5093870;28;20086;-83
2022/11/01 02:29:51;;;;;;;8.68;3.88;;;11.40;99.90;;;;;;5095011;28;20076;-82
2022/11/01 02:32:32;;;;;;;4.65;3.22;;;11.40;99.90;;;;;;5095232;28;20028;-82
2022/11/01 02:35:03;;;;;;;7.25;3.30;;;11.30;99.90;;;;;;5094979;28;20044;-81
2022/11/01 02:37:37;;;;;;;6.43;3.70;;;11.30;99.90;;;;;;5094927;28;20020;-80
2022/11/01 02:40:09;;;;;;;3.92;2.72;;;;;;;;;;5108850;28;20016;-81
2022/11/01 02:42:37;;;;;;;5.80;3.47;;;;;;;;;;5106210;28;20092;-82
2022/11/01 02:45:06;;;;;;;9.50;3.20;;;;;;;;;;5098596;28;20043;-81
2022/11/01 02:47:32;;;;;;;7.72;3.20;;;;;;;;;;5098619;28;20157;-84
2022/11/01 02:50:04;;;;;;;4.72;2.60;;;;;;;;;;5081758;28;20056;-84
2022/11/01 02:52:31;;;;;;;5.47;2.22;;;;;;;;;;5083910;28;20025;-85
2022/11/01 02:54:59;;;;;;;6.32;4.15;;;;;;;;;;5082057;28;20059;-83
2022/11/01 02:57:25;;;;;;;5.55;2.97;;;;;;;;;;5081836;28;20032;-83
2022/11/01 02:59:51;;;;;;;4.47;2.67;;;;;;;;;;5079447;28;20115;-83
2022/11/01 03:02:20;;;;;;;6.07;3.30;;;;;;;;;;5078285;28;20101;-82
2022/11/01 03:04:47;;;;;;;4.72;2.80;;;;;;;;;;5077912;28;20017;-83
2022/11/01 03:07:13;;;;;;;4.72;2.67;;;;;;;;;;5069801;28;20059;-82
2022/11/01 03:09:40;;;;;;;4.88;2.90;;;;;;;;;;5086382;28;20385;-83
2022/11/01 03:12:09;;;;;;;5.38;2.60;;;;;;;;;;5085834;28;20207;-82
2022/11/01 03:14:41;;;;;;;7.47;2.55;;;;;;;;;;5094901;28;20035;-83
2022/11/01 03:17:19;;;;;;;4.53;2.67;;;;;;;;;;5080430;28;20029;-82
2022/11/01 03:19:51;;;;;;;3.55;2.35;;;;;;;;;;5069283;28;20029;-82
2022/11/01 03:22:19;;;;;;;2.65;2.10;;;;;;;;;;5080224;28;20024;-82
2022/11/01 03:24:51;;;;;;;5.30;2.63;;;;;;;;;;5081464;28;20020;-84
2022/11/01 03:27:27;;;;;;;5.93;2.65;;;;;;;;;;5080072;28;20028;-84
2022/11/01 03:30:05;;;;;;;3.78;2.88;;;;;;;;;;5081159;28;20013;-83
2022/11/01 03:32:33;;;;;;;4.43;2.78;;;;;;;;;;5084523;28;20382;-83
2022/11/01 03:35:00;;;;;;;5.95;2.58;;;;;;;;;;5082941;28;20047;-84
2022/11/01 03:37:27;;;;;;;3.03;2.28;;;;;;;;;;5083551;28;20523;-84
2022/11/01 03:39:54;;;;;;;5.60;3.08;;;;;;;;;;5094435;28;20401;-79
2022/11/01 03:42:21;;;;;;;5.30;2.95;;;;;;;;;;5112900;28;20066;-80
2022/11/01 03:44:50;;;;;;;4.13;2.50;;;;;;;;;;5101782;28;20025;-81
2022/11/01 03:47:16;;;;;;;2.95;1.95;;;;;;;;;;5097394;28;20008;-83
2022/11/01 03:49:42;;;;;;;2.60;2.38;;;;;;;;;;5090111;28;20042;-84
2022/11/01 03:52:08;;;;;;;3.65;2.42;;;;;;;;;;5085406;28;20047;-82
2022/11/01 03:54:34;;;;;;;5.40;2.65;;;;;;;;;;5085761;28;20086;-81
2022/11/01 03:57:00;;;;;;;5.78;3.80;;;;;;;;;;5086208;28;20027;-83
2022/11/01 03:59:26;;;;;;;2.90;2.28;;;;;;;;;;5085088;28;20024;-81
2022/11/01 04:01:53;;;;;;;3.63;2.13;;;;;;;;;;5087321;28;20024;-83
2022/11/01 04:04:19;;;;;;;2.65;2.30;;;;;;;;;;5092593;28;20092;-84
2022/11/01 04:06:45;;;;;;;4.28;2.50;;;;;;;;;;5084606;28;20058;-83
2022/11/01 04:09:11;;;;;;;3.38;2.10;;;;;;;;;;5101020;28;20020;-84
2022/11/01 04:11:37;;;;;;;3.05;2.20;;;;;;;;;;5077456;28;20040;-82
2022/11/01 04:22:17;;;;;;;3.35;2.35;;;;;;;;;;5096160;28;20044;-81
2022/11/01 04:24:43;;;;;;;6.63;2.92;;;;;;;;;;5098327;28;20032;-80
2022/11/01 04:27:09;;;;;;;5.72;2.92;;;;;;;;;;5096992;28;20020;-81
2022/11/01 04:29:35;;;;;;;4.55;3.38;;;;;;;;;;5097999;28;20017;-81
2022/11/01 04:32:02;;;;;;;4.50;2.83;;;;;;;;;;5097154;28;20021;-81
2022/11/01 04:34:43;;;;;;;2.53;2.22;;;;;;;;;;5095385;28;20028;-84
2022/11/01 04:37:10;;;;;;;8.80;3.25;;;;;;;;;;5084181;28;20052;-83
2022/11/01 04:39:36;;;;;;;8.63;3.83;;;;;;;;;;5095243;28;20024;-84
2022/11/01 04:42:02;;;;;;;5.05;2.60;;;;;;;;;;5093451;28;20028;-83
2022/11/01 04:44:28;;;;;;;4.32;2.55;;;;;;;;;;5099934;28;20051;-82
2022/11/01 04:46:54;;;;;;;5.85;2.95;;;;;;;;;;5089442;28;20024;-82
2022/11/01 04:49:20;;;;;;;4.72;2.55;;;;;;;;;;5088056;28;20093;-83
2022/11/01 04:51:46;;;;;;;3.60;2.20;;;;;;;;;;5086813;28;20032;-82
2022/11/01 04:54:12;;;;;;;5.68;2.92;;;;;;;;;;5088912;28;20004;-82
2022/11/01 04:56:38;;;;;;;5.32;3.08;;;;;;;;;;5087226;28;20389;-83
2022/11/01 04:59:04;;;;;;;3.40;2.50;;;;;;;;;;5087473;28;20027;-83
2022/11/01 05:01:31;;;;;;;6.10;2.40;;;;;;;;;;5084208;28;20024;-82
2022/11/01 05:03:57;;;;;;;5.07;2.58;;;;;;;;;;5084728;28;20028;-81
2022/11/01 05:06:23;;;;;;;4.13;2.10;;;;;;;;;;5081897;28;20036;-80
2022/11/01 05:08:49;;;;;;;4.03;2.38;;;;;;;;;;5078750;28;20041;-81
2022/11/01 05:11:15;;;;;;;5.13;2.80;;;;;;;;;;5087568;28;20084;-82
2022/11/01 05:13:41;;;;;;;2.85;2.33;;;;;;;;;;5081485;28;20431;-83
2022/11/01 05:16:07;;;;;;;3.83;2.28;;;;;;;;;;5081136;28;20063;-81
2022/11/01 05:18:33;;;;;;;3.53;2.00;;;;;;;;;;5079543;28;20029;-81
2022/11/01 05:20:59;;;;;;;2.17;1.77;;;;;;;;;;5081005;28;20035;-81
2022/11/01 05:23:25;;;;;;;5.45;2.83;;;;;;;;;;5081164;28;20029;-80
2022/11/01 05:25:51;;;;;;;5.10;2.85;;;;;;;;;;5091820;28;20024;-82
2022/11/01 05:28:17;;;;;;;4.13;2.55;;;;;;;;;;5089861;28;20040;-82
2022/11/01 05:30:43;;;;;;;3.70;2.80;;;;;;;;;;5082649;28;20021;-81
2022/11/01 05:33:10;;;;;;;3.88;2.50;;;;;;;;;;5081969;28;20078;-81
2022/11/01 05:35:37;;;;;;;5.85;2.58;;;;;;;;;;5082136;28;20021;-81
2022/11/01 05:38:03;;;;;;;4.80;2.75;;;;;;;;;;5082813;28;20355;-82
2022/11/01 05:40:30;;;;;;;3.35;2.40;;;;;;;;;;5091175;28;20027;-80
2022/11/01 05:42:56;;;;;;;3.10;2.30;;;;;;;;;;5087444;28;20508;-80
2022/11/01 05:45:22;;;;;;;2.50;2.08;;;;;;;;;;5084820;28;20032;-81
2022/11/01 05:47:49;;;;;;;5.07;2.88;;;;;;;;;;5090323;28;20028;-80
2022/11/01 05:50:15;;;;;;;3.10;1.80;;;;;;;;;;5079269;28;20032;-81
2022/11/01 05:52:42;;;;;;;4.10;2.10;;;;;;;;;;5085110;28;20044;-80
2022/11/01 05:55:09;;;;;;;4.05;2.05;;;;;;;;;;5081537;28;20401;-79
2022/11/01 05:57:35;;;;;;;3.53;2.10;;;;;;;;;;5081799;28;20028;-82
2022/11/01 06:00:01;;;;;;;4.15;2.60;;;;;;;;;;5088573;28;20025;-81
2022/11/01 06:02:30;;;;;;;4.88;3.13;;;;;;;;;;5099444;28;20119;-80
2022/11/01 06:04:56;;;;;;;8.80;3.08;;;;;;;;;;5085662;28;20035;-80
2022/11/01 06:07:25;;;;;;;3.88;2.55;;;;;;;;;;5087632;28;20052;-80
2022/11/01 06:09:51;;;;;;;5.93;2.47;;;;;;;;;;5078043;28;20020;-81
2022/11/01 06:12:17;;;;;;;14.88;3.22;;;;;;;;;;5096216;28;20024;-82
2022/11/01 06:14:43;;;;;;;5.07;2.70;;;;;;;;;;5086245;28;20436;-79
2022/11/01 06:17:12;;;;;;;7.70;2.50;;;;;;;;;;5084340;28;20024;-82
2022/11/01 06:19:38;;;;;;;5.68;2.35;;;;;;;;;;5080831;28;20047;-80
2022/11/01 06:22:04;;;;;;;4.65;2.40;;;;;;;;;;5080120;28;20040;-82
2022/11/01 06:24:30;;;;;;;2.72;1.70;;;;;;;;;;5080569;28;20021;-81
2022/11/01 06:26:56;;;;;;;3.67;2.03;;;;;;;;;;5081132;28;20024;-81
2022/11/01 06:29:23;;;;;;;3.88;2.20;;;;;;;;;;5086319;28;20024;-81
2022/11/01 06:31:49;;;;;;;3.92;2.22;;;;;;;;;;5089335;28;20080;-81
2022/11/01 06:34:15;;;;;;;3.40;1.98;;;;;;;;;;5084200;28;20029;-82
2022/11/01 06:36:42;;;;;;;1.95;1.73;;;;;;;;;;5082709;28;20035;-81
2022/11/01 06:39:09;;;;;;;5.22;1.90;;;;;;;;;;5087697;28;20040;-80
2022/11/01 06:41:35;;;;;;;4.65;1.90;;;;;;;;;;5079956;28;20028;-80
2022/11/01 06:44:01;;;;;;;3.45;1.52;;;;;;;;;;5082300;28;20063;-81
2022/11/01 06:46:28;;;;;;;5.40;2.13;;;;;;;;;;5098817;28;20024;-82
2022/11/01 06:48:54;;;;;;;5.13;2.05;;;;;;;;;;5092685;28;20028;-81
2022/11/01 06:51:20;;;;;;;5.82;2.08;;;;;;;;;;5093393;28;20024;-81
2022/11/01 06:53:46;;;;;;;4.85;2.22;;;;;;;;;;5094204;28;20033;-80
2022/11/01 06:56:12;;;;;;;5.07;2.08;;;;;;;;;;5092587;28;20029;-81
2022/11/01 06:58:38;;;;;;;4.95;2.10;;;;;;;;;;5087050;28;20472;-80
2022/11/01 07:01:04;;;;;;;7.20;2.95;;;;;;;;;;5089295;28;20028;-81
2022/11/01 07:03:30;;;;;;;3.42;1.90;;;;;;;;;;5081685;28;20021;-84
2022/11/01 07:05:59;;;;;;;3.80;2.30;;;;;;;;;;5080082;28;20480;-85
2022/11/01 07:08:25;;;;;;;2.95;1.98;;;;;;;;;;5085070;28;20021;-83
2022/11/01 07:10:51;;;;;;;3.45;2.13;;;;;;;;;;5068265;28;20036;-83
2022/11/01 07:13:17;;;;;;;2.58;1.80;;;;;;;;;;5081767;28;20025;-84
2022/11/01 07:15:43;;;;;;;4.97;2.10;;;;;;;;;;5065007;28;20051;-83
2022/11/01 07:18:09;;;;;;;4.63;2.17;;;;;;;;;;5080510;28;20350;-85
2022/11/01 07:20:40;;;;;;;4.47;2.40;;;;;;;;;;5080233;28;20054;-85
2022/11/01 07:23:08;;;;;;;6.97;2.45;;;;;;;;;;5080248;28;20092;-85
2022/11/01 07:25:34;;;;;;;3.97;1.70;;;;;;;;;;5082320;28;20114;-84
2022/11/01 07:28:00;;;;;;;6.13;2.17;;;;;;;;;;5080804;28;20031;-85
2022/11/01 07:30:26;;;;;;;3.85;2.10;;;;;;;;;;5078031;28;20450;-86
2022/11/01 07:32:59;;;;;;;4.28;2.30;;;;;;;;;;5080085;28;20024;-86
2022/11/01 07:35:26;;;;;;;4.18;1.80;;;;;;;;;;5081586;28;20051;-87
2022/11/01 07:37:52;;;;;;;4.13;2.00;;;;;;;;;;5082627;28;20032;-86
2022/11/01 07:40:21;;;;;;;4.28;2.13;;;;;;;;;;5091248;28;20016;-84
2022/11/01 07:42:47;;;;;;;4.88;2.22;;;;;;;;;;5090786;28;20481;-84
2022/11/01 07:45:13;;;;;;;6.60;2.35;;;;;;;;;;5063419;28;20031;-83
2022/11/01 07:47:39;;;;;;;7.95;3.65;;;;;;;;;;5077593;28;20036;-80
2022/11/01 07:50:05;;;;;;;3.55;1.80;;;;;;;;;;5078167;28;20020;-83
2022/11/01 07:52:32;;;;;;;6.22;2.50;;;;;;;;;;5077245;28;20020;-83
2022/11/01 07:54:58;;;;;;;4.13;2.08;;;;;;;;;;5060529;28;20064;-85
2022/11/01 07:57:24;;;;;;;3.80;2.20;;;;;;;;;;5076648;28;20060;-84
2022/11/01 07:59:50;;;;;;;4.47;2.13;;;;;;;;;;5076976;28;20036;-82
2022/11/01 08:02:16;;;;;;;3.03;1.92;;;;;;;;;;5079087;28;20477;-84
2022/11/01 08:04:42;;;;;;;5.10;2.15;;;;;;;;;;5059844;28;20450;-83
2022/11/01 08:07:08;;;;;;;6.13;2.70;;;;;;;;;;5078537;28;20527;-84
2022/11/01 08:09:34;;;;;;;5.47;2.35;;;;;;;;;;5069196;28;20028;-84
2022/11/01 08:12:00;;;;;;;5.35;2.20;;;;;;;;;;5094442;28;20020;-83
2022/11/01 08:14:26;;;;;;;5.10;2.50;;;;;;;;;;5099422;28;20024;-82
2022/11/01 08:16:54;;;;;;;7.75;2.90;;;;;;;;;;5095078;28;20035;-83
2022/11/01 08:19:20;;;;;;;8.38;3.35;;;;;;;;;;5078307;28;20034;-83
2022/11/01 08:21:49;;;;;;;6.07;2.67;;;;;;;;;;5088383;28;20039;-82
2022/11/01 08:24:15;;;;;;;4.95;2.50;;;;;;;;;;5095786;28;20047;-82
2022/11/01 08:26:42;;;;;;;5.88;2.92;;;;;;;;;;5080431;28;20028;-82
2022/11/01 08:29:08;;;;;;;7.18;3.00;;;;;;;;;;5099211;28;20254;-83
2022/11/01 08:31:34;;;;;;;12.18;3.65;;;;;;;;;;5099124;28;20021;-81
2022/11/01 08:34:00;;;;;;;9.98;3.50;;;;;;;;;;5098291;28;20017;-81
2022/11/01 08:36:26;;;;;;;10.90;3.67;;;;;;;;;;5096123;28;20032;-83
2022/11/01 08:38:52;;;;;;;8.52;3.40;;;;;;;;;;5096042;28;20032;-80
2022/11/01 08:41:18;;;;;;;9.20;3.72;;;;;;;;;;5095012;28;20103;-80
2022/11/01 08:43:44;;;;;;;7.25;2.85;;;;;;;;;;5068747;28;20485;-83
2022/11/01 08:46:10;;;;;;;5.95;3.33;;;;;;;;;;5079689;28;20021;-83
2022/11/01 08:48:37;;;;;;;11.02;4.10;;;;;;;;;;5081244;28;20028;-83
2022/11/01 08:51:04;;;;;;;7.10;3.42;;;;;;;;;;5084085;28;20039;-83
2022/11/01 08:53:30;;;;;;;7.97;3.10;;;;;;;;;;5081204;28;20020;-83
2022/11/01 08:55:56;;;;;;;8.52;3.15;;;;;;;;;;5081926;28;20024;-83
2022/11/01 08:58:22;;;;;;;7.38;3.38;;;;;;;;;;5082090;28;20028;-84
2022/11/01 09:00:48;;;;;;;4.95;2.67;;;;;;;;;;5081534;28;20028;-83
2022/11/01 09:03:14;;;;;;;7.78;3.45;;;;;;;;;;5063573;28;20032;-84
2022/11/01 09:05:40;;;;;;;7.10;3.08;;;;;;;;;;5082916;28;20485;-83
2022/11/01 09:08:06;;;;;;;5.78;3.08;;;;;;;;;;5081634;28;20028;-84
2022/11/01 09:10:33;;;;;;;6.75;4.07;;;;;;;;;;5089542;28;20116;-84
2022/11/01 09:12:59;;;;;;;9.27;3.63;;;;;;;;;;5083091;28;20385;-81
2022/11/01 09:15:25;;;;;;;7.07;3.10;;;;;;;;;;5080198;28;20075;-82
2022/11/01 09:17:51;;;;;;;8.38;3.50;;;;;;;;;;5082112;28;20031;-83
2022/11/01 09:20:18;;;;;;;6.97;3.42;;;;;;;;;;5083443;28;20173;-83
2022/11/01 09:22:44;;;;;;;5.97;2.75;;;;;;;;;;5090464;28;20028;-79
2022/11/01 09:25:11;;;;;;;6.82;2.70;;;;;;;;;;5093198;28;20042;-80
2022/11/01 09:27:37;;;;;;;7.03;3.83;;;;;;;;;;5086683;28;20028;-79
2022/11/01 09:30:04;;;;;;;4.35;2.78;;;;;;;;;;5089806;28;20025;-80
2022/11/01 09:32:30;;;;;;;10.40;3.35;;;;;;;;;;5089980;28;20036;-80
2022/11/01 09:34:56;;;;;;;6.75;2.58;;;;;;;;;;5081349;28;20032;-82
2022/11/01 09:37:22;;;;;;;7.82;2.72;;;;;;;;;;5079889;28;20393;-82
2022/11/01 09:39:48;;;;;;;4.13;2.80;;;;;;;;;;5091363;28;20044;-82
2022/11/01 09:42:28;;;;;;;5.65;2.30;;;;;;;;;;5100718;28;20036;-80
2022/11/01 09:44:56;;;;;;;15.02;3.80;;;;;;;;;;5101822;28;20100;-81
2022/11/01 09:47:23;;;;;;;10.00;3.72;;;;;;;;;;5093338;28;20028;-81
2022/11/01 09:49:57;;;;;;;6.13;3.10;;;;;;;;;;5082983;28;20025;-81
2022/11/01 09:52:24;;;;;;;5.97;2.92;;;;;;;;;;5081866;28;20024;-81
2022/11/01 09:54:50;;;;;;;6.95;3.15;;;;;;;;;;5062273;28;20024;-80
2022/11/01 09:57:20;;;;;;;4.53;2.55;;;;;;;;;;5080063;28;20028;-81
2022/11/01 10:00:05;;;;;;;4.47;2.42;;;;;;;;;;5080843;28;20028;-80
2022/11/01 10:03:01;;;;;;;4.55;2.80;;;;;;;;;;5079563;28;20039;-82
2022/11/01 10:05:35;;;;;;;7.95;2.47;;;;;;;;;;5065288;28;20053;-82
2022/11/01 10:08:19;;;;;;;4.70;2.30;;;;;;;;;;5069000;28;20474;-82
2022/11/01 10:10:50;;;;;;;6.65;2.55;;;;;;;;;;5074672;28;20021;-82
2022/11/01 10:13:19;;;;;;;6.32;2.40;;;;;;;;;;5082187;28;20032;-82
2022/11/01 10:15:45;;;;;;;4.30;2.30;;;;;;;;;;5080671;28;20036;-80
2022/11/01 10:18:11;;;;;;;4.90;2.40;;;;;;;;;;5063570;28;20050;-81
2022/11/01 10:20:38;;;;;;;3.83;2.03;;;;;;;;;;5080507;28;20028;-81
2022/11/01 10:23:05;;;;;;;4.75;2.10;;;;;;;;;;5081459;28;20025;-81
2022/11/01 10:25:37;;;;;;;7.32;2.28;;;;;;;;;;5081836;28;20020;-81
2022/11/01 10:28:03;;;;;;;5.22;2.20;;;;;;;;;;5080756;28;20020;-82
2022/11/01 10:30:35;;;;;;;4.40;1.98;;;;;;;;;;5086213;28;20036;-81
2022/11/01 10:33:05;;;;;;;6.68;3.10;;;;;;;;;;5091454;28;20016;-82
2022/11/01 10:35:43;;;;;;;5.82;2.30;;;;;;;;;;5080789;28;20048;-82
2022/11/01 10:38:17;;;;;;;6.60;2.10;;;;;;;;;;5080560;28;20032;-80
2022/11/01 10:40:56;;;;;;;7.70;3.00;;;;;;;;;;5091247;28;20097;-81
2022/11/01 10:43:23;;;;;;;4.47;2.10;;;;;;;;;;5067262;28;20455;-83
2022/11/01 10:45:50;;;;;;;6.90;2.25;;;;;;;;;;5063287;28;20033;-82
2022/11/01 10:48:27;;;;;;;8.38;2.67;;;;;;;;;;5079681;28;20033;-82
2022/11/01 10:50:54;;;;;;;4.90;2.03;;;;;;;;;;5062508;28;20074;-80
2022/11/01 10:53:20;;;;;;;5.47;2.03;;;;;;;;;;5082172;28;20025;-81
2022/11/01 10:55:49;;;;;;;4.82;2.10;;;;;;;;;;5080423;28;20029;-82
2022/11/01 10:58:27;;;;;;;3.50;1.40;;;;;;;;;;5080644;28;20025;-82
2022/11/01 11:00:53;;;;;;;4.95;1.80;;;;;;;;;;5080712;28;20024;-82
2022/11/01 11:03:29;;;;;;;4.07;1.45;;;;;;;;;;5080467;28;20029;-82
2022/11/01 11:05:58;;;;;;;3.92;2.03;;;;;;;;;;5062960;28;20173;-82
2022/11/01 11:08:25;;;;;;;6.40;2.58;;;;;;;;;;5080228;28;20048;-82
2022/11/01 11:10:52;;;;;;;5.18;1.92;;;;;;;;;;5081186;28;20016;-83
2022/11/01 11:13:22;;;;;;;5.88;2.13;;;;;;;;;;5081019;28;20016;-80
2022/11/01 11:15:51;;;;;;;6.43;2.40;;;;;;;;;;5081717;28;20025;-81
2022/11/01 11:18:22;;;;;;;8.07;2.33;;;;;;;;;;5080357;28;20028;-84
2022/11/01 11:20:53;;;;;;;3.15;2.22;;;;;;;;;;5080057;28;20038;-82
2022/11/01 11:23:21;;;;;;;3.25;2.08;;;;;;;;;;5081972;28;20005;-81
2022/11/01 11:25:49;;;;;;;3.67;2.33;;;;;;;;;;5080712;28;20067;-83
2022/11/01 11:28:43;;;;;;;4.20;1.60;;;;;;;;;;5081725;28;20027;-82
2022/11/01 11:31:14;;;;;;;4.20;1.55;;;;;;;;;;5062919;28;20032;-82
2022/11/01 11:33:47;;;;;;;5.40;1.77;;;;;;;;;;5082196;28;20389;-82
2022/11/01 11:36:14;;;;;;;2.78;1.75;;;;;;;;;;5061892;28;20270;-81
2022/11/01 11:38:44;;;;;;;5.80;2.00;;;;;;;;;;5086169;28;20027;-82
2022/11/01 11:41:11;;;;;;;4.35;1.42;;;;;;;;;;5083428;28;20032;-84
2022/11/01 11:43:40;;;;;;;9.02;2.50;;;;;;;;;;5080273;28;20037;-82
2022/11/01 11:46:09;;;;;;;3.25;1.63;;;;;;;;;;5080092;28;20165;-82
2022/11/01 11:49:00;;;;;;;3.38;1.80;;;;;;;;;;5081044;28;20021;-82
2022/11/01 11:51:27;;;;;;;3.17;1.58;;;;;;;;;;5063140;28;20046;-82
2022/11/01 11:54:06;;;;;;;4.25;1.67;;;;;;;;;;5080920;28;20024;-80
2022/11/01 11:56:32;;;;;;;2.75;1.70;;;;;;;;;;5080646;28;20035;-83
2022/11/01 11:59:01;;;;;;;5.00;1.65;;;;;;;;;;5080557;28;20020;-83
2022/11/01 12:01:30;;;;;;;2.67;2.00;;;;;;;;;;5087262;28;20044;-82
2022/11/01 12:04:07;;;;;;;4.40;1.83;;;;;;;;;;5084246;28;20093;-83
2022/11/01 12:06:37;;;;;;;6.20;1.45;;;;;;;;;;5085042;28;20032;-83
2022/11/01 12:09:04;;;;;;;4.88;1.40;;;;;;;;;;5093964;28;20050;-82
2022/11/01 12:11:38;;;;;;;3.67;1.67;;;;;;;;;;5103415;28;20032;-83
2022/11/01 12:14:30;;;;;;;2.92;1.75;;;;;;;;;;5088022;28;20027;-81
2022/11/01 12:16:56;;;;;;;4.03;1.63;;;;;;;;;;5085801;28;20194;-79
2022/11/01 12:19:27;;;;;;;5.13;1.42;;;;;;;;;;5099529;28;20023;-80
2022/11/01 12:21:54;;;;;;;3.35;2.08;;;;;;;;;;5081701;28;20080;-79
2022/11/01 12:24:25;;;;;;;5.82;1.50;;;;;;;;;;5099317;28;20016;-79
2022/11/01 12:26:53;;;;;;;1.95;1.10;;;;;;;;;;5099243;28;20048;-81
2022/11/01 12:29:26;;;;;;;5.47;1.58;;;;;;;;;;5081653;28;20020;-81
2022/11/01 12:31:53;;;;;;;5.72;1.40;;;;;;;;;;5098394;28;20021;-81
2022/11/01 12:34:29;;;;;;;5.28;2.25;;;;;;;;;;5098797;28;20024;-81
2022/11/01 12:37:02;;;;;;;2.35;1.10;;;;;;;;;;5097799;28;20023;-80
2022/11/01 12:39:51;;;;;;;4.28;1.02;;;;;;;;;;5098044;28;20040;-80
2022/11/01 12:42:28;;;;;;;2.97;0.88;;;;;;;;;;5090446;28;20096;-79
2022/11/01 12:44:57;;;;;;;3.50;1.15;;;;;;;;;;5085790;28;20029;-82
2022/11/01 12:47:27;;;;;;;1.20;1.02;;;;;;;;;;5082956;28;20016;-82
2022/11/01 12:49:58;;;;;;;4.22;1.40;;;;;;;;;;5084902;28;20044;-81
2022/11/01 12:52:33;;;;;;;5.15;1.48;;;;;;;;;;5082387;28;20028;-82
2022/11/01 12:55:03;;;;;;;3.90;1.48;;;;;;;;;;5081925;28;20048;-82
2022/11/01 12:57:29;;;;;;;2.35;1.40;;;;;;;;;;5060179;28;20040;-81
2022/11/01 12:59:55;;;;;;;2.60;1.80;;;;;;;;;;5064537;28;20036;-82
2022/11/01 13:02:30;;;;;;;3.25;1.50;;;;;;;;;;5083282;28;20529;-82
2022/11/01 13:04:56;;;;;;;4.85;1.52;;;;;;;;;;5083189;28;20017;-83
2022/11/01 13:07:26;;;;;;;4.57;1.55;;;;;;;;;;5064971;28;20028;-82
2022/11/01 13:10:04;;;;;;;3.88;1.38;;;;;;;;;;5083982;28;20032;-83
2022/11/01 13:12:39;;;;;;;6.97;1.80;;;;;;;;;;5084059;28;20020;-81
2022/11/01 13:15:24;;;;;;;4.28;1.58;;;;;;;;;;5084371;28;20031;-81
2022/11/01 13:18:02;;;;;;;3.38;2.00;;;;;;;;;;5070047;28;20077;-82
2022/11/01 13:20:28;;;;;;;3.88;2.35;;;;;;;;;;5088029;28;20025;-83
2022/11/01 13:23:06;;;;;;;4.35;2.30;;;;;;;;;;5083995;28;20029;-83
2022/11/01 13:25:39;;;;;;;4.22;1.90;;;;;;;;;;5085648;28;20039;-83
2022/11/01 13:28:05;;;;;;;8.13;1.88;;;;;;;;;;5071754;28;20038;-83
2022/11/01 13:30:32;;;;;;;4.50;1.42;;;;;;;;;;5064906;28;20092;-82
2022/11/01 13:33:11;;;;;;;2.83;1.50;;;;;;;;;;5083436;28;20024;-83
2022/11/01 13:35:49;;;;;;;4.15;1.90;;;;;;;;;;5082711;28;20025;-82
2022/11/01 13:38:16;;;;;;;6.57;2.10;;;;;;;;;;5087073;28;20896;-82
2022/11/01 13:40:47;;;;;;;3.05;2.00;;;;;;;;;;5085795;28;20027;-83
2022/11/01 13:43:21;;;;;;;10.77;3.13;;;;;;;;;;5086081;28;20029;-83
2022/11/01 13:45:47;;;;;;;6.18;2.10;;;;;;;;;;5082985;28;20032;-83
2022/11/01 13:48:33;;;;;;;3.58;1.77;;;;;;;;;;5080478;28;20059;-83
2022/11/01 13:50:59;;;;;;;3.45;1.80;;;;;;;;;;5061931;28;20491;-82
2022/11/01 13:53:25;;;;;;;3.85;2.10;;;;;;;;;;5081811;28;20405;-83
2022/11/01 13:55:54;;;;;;;2.95;1.98;;;;;;;;;;5084124;28;20024;-81
2022/11/01 13:58:22;;;;;;;2.25;1.67;;;;;;;;;;5069183;28;20033;-82
2022/11/01 14:00:50;;;;;;;5.07;1.90;;;;;;;;;;5066688;28;20024;-81
2022/11/01 14:03:29;;;;;;;6.88;2.22;;;;;;;;;;5083847;28;20035;-82
2022/11/01 14:06:21;;;;;;;2.72;1.88;;;;;;;;;;5076760;28;20028;-81
2022/11/01 14:08:50;;;;;;;4.63;1.83;;;;;;;;;;5057015;28;20036;-81
2022/11/01 14:11:35;;;;;;;8.20;2.45;;;;;;;;;;5070877;28;20064;-81
2022/11/01 14:14:22;;;;;;;5.00;1.83;;;;;;;;;;5080487;28;20021;-83
2022/11/01 14:16:48;;;;;;;6.63;1.98;;;;;;;;;;5084578;28;20027;-83
2022/11/01 14:19:19;;;;;;;8.70;1.83;;;;;;;;;;5081593;28;20366;-81
2022/11/01 14:21:46;;;;;;;4.60;2.27;;;;;;;;;;5066746;28;20032;-83
2022/11/01 14:24:18;;;;;;;3.97;1.80;;;;;;;;;;5046615;28;20024;-81
2022/11/01 14:26:46;;;;;;;5.07;2.88;;;;;;;;;;5069008;28;20025;-81
2022/11/01 14:29:12;;;;;;;5.00;2.13;;;;;;;;;;5068476;28;20444;-81
2022/11/01 14:31:40;;;;;;;2.47;1.85;;;;;;;;;;5078777;28;20067;-82
2022/11/01 14:34:07;;;;;;;4.85;2.20;;;;;;;;;;5059462;28;20017;-82
2022/11/01 14:36:38;;;;;;;7.38;2.08;;;;;;;;;;5062430;28;20052;-82